sensor_id;sensor_type;location;lat;lon;timestamp;P1;durP1;ratioP1;P2;durP2;ratioP2
37231;SDS011;23125;48.156;15.954;2023-04-24T00:00:20;5.32;;;3.30;;
37231;SDS011;23125;48.156;15.954;2023-04-24T00:02:46;4.13;;;3.33;;
37231;SDS011;23125;48.156;15.954;2023-04-24T00:05:15;6.05;;;3.65;;
37231;SDS011;23125;48.156;15.954;2023-04-24T00:07:43;4.57;;;3.35;;
37231;SDS011;23125;48.156;15.954;2023-04-24T00:10:10;6.88;;;3.78;;
37231;SDS011;23125;48.156;15.954;2023-04-24T00:12:37;4.97;;;3.33;;
37231;SDS011;23125;48.156;15.954;2023-04-24T00:15:04;5.07;;;4.05;;
37231;SDS011;23125;48.156;15.954;2023-04-24T00:17:31;8.90;;;4.22;;
37231;SDS011;23125;48.156;15.954;2023-04-24T00:19:57;5.22;;;3.70;;
37231;SDS011;23125;48.156;15.954;2023-04-24T00:22:28;6.90;;;3.72;;
37231;SDS011;23125;48.156;15.954;2023-04-24T00:24:54;5.72;;;3.92;;
37231;SDS011;23125;48.156;15.954;2023-04-24T00:27:20;3.97;;;3.40;;
37231;SDS011;23125;48.156;15.954;2023-04-24T00:29:46;5.20;;;3.60;;
37231;SDS011;23125;48.156;15.954;2023-04-24T00:32:12;6.40;;;3.50;;
37231;SDS011;23125;48.156;15.954;2023-04-24T00:34:39;4.45;;;3.65;;
37231;SDS011;23125;48.156;15.954;2023-04-24T00:37:06;4.43;;;3.28;;
37231;SDS011;23125;48.156;15.954;2023-04-24T00:39:32;3.65;;;3.03;;
37231;SDS011;23125;48.156;15.954;2023-04-24T00:41:58;5.65;;;3.72;;
37231;SDS011;23125;48.156;15.954;2023-04-24T00:44:24;4.93;;;3.63;;
37231;SDS011;23125;48.156;15.954;2023-04-24T00:46:50;5.85;;;4.30;;
37231;SDS011;23125;48.156;15.954;2023-04-24T00:51:48;4.85;;;3.47;;
37231;SDS011;23125;48.156;15.954;2023-04-24T00:54:16;4.20;;;3.42;;
37231;SDS011;23125;48.156;15.954;2023-04-24T00:56:43;5.82;;;3.50;;
37231;SDS011;23125;48.156;15.954;2023-04-24T00:59:13;5.68;;;3.83;;
37231;SDS011;23125;48.156;15.954;2023-04-24T01:01:43;5.03;;;3.80;;
37231;SDS011;23125;48.156;15.954;2023-04-24T01:04:11;5.57;;;3.30;;
37231;SDS011;23125;48.156;15.954;2023-04-24T01:06:40;4.25;;;3.47;;
37231;SDS011;23125;48.156;15.954;2023-04-24T01:09:08;5.60;;;4.13;;
37231;SDS011;23125;48.156;15.954;2023-04-24T01:11:36;4.88;;;3.50;;
37231;SDS011;23125;48.156;15.954;2023-04-24T01:14:03;4.00;;;3.08;;
37231;SDS011;23125;48.156;15.954;2023-04-24T01:16:29;5.82;;;4.00;;
37231;SDS011;23125;48.156;15.954;2023-04-24T01:18:55;5.68;;;3.33;;
37231;SDS011;23125;48.156;15.954;2023-04-24T01:21:21;5.07;;;3.63;;
37231;SDS011;23125;48.156;15.954;2023-04-24T01:23:52;5.50;;;3.55;;
37231;SDS011;23125;48.156;15.954;2023-04-24T01:26:18;5.38;;;3.17;;
37231;SDS011;23125;48.156;15.954;2023-04-24T01:28:45;6.07;;;4.25;;
37231;SDS011;23125;48.156;15.954;2023-04-24T01:31:11;6.55;;;4.40;;
37231;SDS011;23125;48.156;15.954;2023-04-24T01:33:37;5.15;;;3.90;;
37231;SDS011;23125;48.156;15.954;2023-04-24T01:36:03;5.18;;;3.38;;
37231;SDS011;23125;48.156;15.954;2023-04-24T01:38:31;4.80;;;3.38;;
37231;SDS011;23125;48.156;15.954;2023-04-24T01:40:56;5.07;;;3.20;;
37231;SDS011;23125;48.156;15.954;2023-04-24T01:43:22;3.65;;;2.92;;
37231;SDS011;23125;48.156;15.954;2023-04-24T01:45:49;4.97;;;3.50;;
37231;SDS011;23125;48.156;15.954;2023-04-24T01:48:15;4.25;;;3.40;;
37231;SDS011;23125;48.156;15.954;2023-04-24T01:50:41;4.55;;;3.30;;
37231;SDS011;23125;48.156;15.954;2023-04-24T01:53:07;5.07;;;3.40;;
37231;SDS011;23125;48.156;15.954;2023-04-24T01:55:33;4.30;;;3.40;;
37231;SDS011;23125;48.156;15.954;2023-04-24T01:57:59;6.50;;;3.15;;
37231;SDS011;23125;48.156;15.954;2023-04-24T02:00:26;6.00;;;3.20;;
37231;SDS011;23125;48.156;15.954;2023-04-24T02:02:52;4.75;;;3.28;;
37231;SDS011;23125;48.156;15.954;2023-04-24T02:05:18;6.28;;;3.08;;
37231;SDS011;23125;48.156;15.954;2023-04-24T02:07:44;4.57;;;3.13;;
37231;SDS011;23125;48.156;15.954;2023-04-24T02:10:10;4.30;;;3.05;;
37231;SDS011;23125;48.156;15.954;2023-04-24T02:12:36;4.45;;;3.13;;
37231;SDS011;23125;48.156;15.954;2023-04-24T02:15:02;3.53;;;3.03;;
37231;SDS011;23125;48.156;15.954;2023-04-24T02:17:28;4.55;;;3.10;;
37231;SDS011;23125;48.156;15.954;2023-04-24T02:19:54;4.68;;;3.22;;
37231;SDS011;23125;48.156;15.954;2023-04-24T02:22:20;6.22;;;3.10;;
37231;SDS011;23125;48.156;15.954;2023-04-24T02:24:46;5.35;;;3.17;;
37231;SDS011;23125;48.156;15.954;2023-04-24T02:27:12;4.70;;;3.53;;
37231;SDS011;23125;48.156;15.954;2023-04-24T02:29:38;6.47;;;3.22;;
37231;SDS011;23125;48.156;15.954;2023-04-24T02:32:04;4.75;;;3.60;;
37231;SDS011;23125;48.156;15.954;2023-04-24T02:34:30;5.35;;;3.42;;
37231;SDS011;23125;48.156;15.954;2023-04-24T02:36:55;4.25;;;3.22;;
37231;SDS011;23125;48.156;15.954;2023-04-24T02:39:21;5.10;;;3.20;;
37231;SDS011;23125;48.156;15.954;2023-04-24T02:41:47;5.47;;;3.17;;
37231;SDS011;23125;48.156;15.954;2023-04-24T02:44:13;3.90;;;2.38;;
37231;SDS011;23125;48.156;15.954;2023-04-24T02:46:39;6.00;;;3.05;;
37231;SDS011;23125;48.156;15.954;2023-04-24T02:49:06;5.57;;;3.53;;
37231;SDS011;23125;48.156;15.954;2023-04-24T02:51:32;3.88;;;2.70;;
37231;SDS011;23125;48.156;15.954;2023-04-24T02:53:58;4.03;;;2.75;;
37231;SDS011;23125;48.156;15.954;2023-04-24T02:56:24;4.45;;;2.90;;
37231;SDS011;23125;48.156;15.954;2023-04-24T02:58:50;5.95;;;3.28;;
37231;SDS011;23125;48.156;15.954;2023-04-24T03:01:16;5.13;;;2.83;;
37231;SDS011;23125;48.156;15.954;2023-04-24T03:03:44;4.55;;;2.97;;
37231;SDS011;23125;48.156;15.954;2023-04-24T03:06:10;3.72;;;2.83;;
37231;SDS011;23125;48.156;15.954;2023-04-24T03:08:36;4.28;;;2.90;;
37231;SDS011;23125;48.156;15.954;2023-04-24T03:11:02;3.88;;;3.08;;
37231;SDS011;23125;48.156;15.954;2023-04-24T03:13:28;4.15;;;2.85;;
37231;SDS011;23125;48.156;15.954;2023-04-24T03:15:54;3.70;;;3.10;;
37231;SDS011;23125;48.156;15.954;2023-04-24T03:18:19;3.63;;;2.90;;
37231;SDS011;23125;48.156;15.954;2023-04-24T03:20:45;4.45;;;2.80;;
37231;SDS011;23125;48.156;15.954;2023-04-24T03:23:12;3.65;;;2.38;;
37231;SDS011;23125;48.156;15.954;2023-04-24T03:25:38;3.85;;;2.55;;
37231;SDS011;23125;48.156;15.954;2023-04-24T03:28:04;3.30;;;2.28;;
37231;SDS011;23125;48.156;15.954;2023-04-24T03:30:30;3.15;;;1.88;;
37231;SDS011;23125;48.156;15.954;2023-04-24T03:32:56;3.55;;;2.17;;
37231;SDS011;23125;48.156;15.954;2023-04-24T03:35:22;3.75;;;2.88;;
37231;SDS011;23125;48.156;15.954;2023-04-24T03:37:48;4.47;;;3.03;;
37231;SDS011;23125;48.156;15.954;2023-04-24T03:40:14;3.55;;;2.63;;
37231;SDS011;23125;48.156;15.954;2023-04-24T03:42:39;5.13;;;2.83;;
37231;SDS011;23125;48.156;15.954;2023-04-24T03:45:06;4.40;;;2.90;;
37231;SDS011;23125;48.156;15.954;2023-04-24T03:47:32;3.28;;;2.30;;
37231;SDS011;23125;48.156;15.954;2023-04-24T03:49:58;3.97;;;2.55;;
37231;SDS011;23125;48.156;15.954;2023-04-24T03:52:24;2.97;;;2.22;;
37231;SDS011;23125;48.156;15.954;2023-04-24T03:54:50;3.95;;;2.38;;
37231;SDS011;23125;48.156;15.954;2023-04-24T03:57:16;2.58;;;1.88;;
37231;SDS011;23125;48.156;15.954;2023-04-24T03:59:42;4.68;;;2.15;;
37231;SDS011;23125;48.156;15.954;2023-04-24T04:02:08;2.58;;;1.98;;
37231;SDS011;23125;48.156;15.954;2023-04-24T04:04:34;3.05;;;2.35;;
37231;SDS011;23125;48.156;15.954;2023-04-24T04:06:59;3.90;;;2.05;;
37231;SDS011;23125;48.156;15.954;2023-04-24T04:09:28;3.42;;;2.25;;
37231;SDS011;23125;48.156;15.954;2023-04-24T04:11:54;5.03;;;2.17;;
37231;SDS011;23125;48.156;15.954;2023-04-24T04:14:21;3.58;;;2.33;;
37231;SDS011;23125;48.156;15.954;2023-04-24T04:16:48;3.53;;;1.80;;
37231;SDS011;23125;48.156;15.954;2023-04-24T04:19:14;4.72;;;2.50;;
37231;SDS011;23125;48.156;15.954;2023-04-24T04:21:40;2.60;;;2.00;;
37231;SDS011;23125;48.156;15.954;2023-04-24T04:24:06;3.92;;;1.90;;
37231;SDS011;23125;48.156;15.954;2023-04-24T04:26:32;5.25;;;3.05;;
37231;SDS011;23125;48.156;15.954;2023-04-24T04:28:58;3.85;;;2.47;;
37231;SDS011;23125;48.156;15.954;2023-04-24T04:31:28;4.28;;;2.58;;
37231;SDS011;23125;48.156;15.954;2023-04-24T04:33:55;3.05;;;2.20;;
37231;SDS011;23125;48.156;15.954;2023-04-24T04:36:21;4.78;;;2.20;;
37231;SDS011;23125;48.156;15.954;2023-04-24T04:38:49;3.05;;;2.22;;
37231;SDS011;23125;48.156;15.954;2023-04-24T04:41:15;3.33;;;2.42;;
37231;SDS011;23125;48.156;15.954;2023-04-24T04:43:42;7.10;;;2.97;;
37231;SDS011;23125;48.156;15.954;2023-04-24T04:46:08;3.47;;;2.53;;
37231;SDS011;23125;48.156;15.954;2023-04-24T04:48:36;4.60;;;2.60;;
37231;SDS011;23125;48.156;15.954;2023-04-24T04:51:03;3.50;;;2.70;;
37231;SDS011;23125;48.156;15.954;2023-04-24T04:53:29;3.63;;;2.63;;
37231;SDS011;23125;48.156;15.954;2023-04-24T04:55:55;3.83;;;2.53;;
37231;SDS011;23125;48.156;15.954;2023-04-24T04:58:22;5.97;;;3.30;;
37231;SDS011;23125;48.156;15.954;2023-04-24T05:00:48;3.60;;;2.55;;
37231;SDS011;23125;48.156;15.954;2023-04-24T05:03:14;3.58;;;2.78;;
37231;SDS011;23125;48.156;15.954;2023-04-24T05:05:40;5.05;;;3.30;;
37231;SDS011;23125;48.156;15.954;2023-04-24T05:08:07;3.80;;;2.70;;
37231;SDS011;23125;48.156;15.954;2023-04-24T05:10:33;3.47;;;2.88;;
37231;SDS011;23125;48.156;15.954;2023-04-24T05:12:59;6.35;;;4.40;;
37231;SDS011;23125;48.156;15.954;2023-04-24T05:15:26;3.30;;;2.40;;
37231;SDS011;23125;48.156;15.954;2023-04-24T05:17:52;3.05;;;2.30;;
37231;SDS011;23125;48.156;15.954;2023-04-24T05:20:18;2.72;;;1.70;;
37231;SDS011;23125;48.156;15.954;2023-04-24T05:22:44;3.13;;;2.03;;
37231;SDS011;23125;48.156;15.954;2023-04-24T05:25:10;2.92;;;2.00;;
37231;SDS011;23125;48.156;15.954;2023-04-24T05:27:37;3.90;;;1.90;;
37231;SDS011;23125;48.156;15.954;2023-04-24T05:30:04;1.63;;;1.52;;
37231;SDS011;23125;48.156;15.954;2023-04-24T05:32:31;2.00;;;1.30;;
37231;SDS011;23125;48.156;15.954;2023-04-24T05:34:57;2.55;;;1.27;;
37231;SDS011;23125;48.156;15.954;2023-04-24T05:37:22;2.80;;;1.10;;
37231;SDS011;23125;48.156;15.954;2023-04-24T05:39:48;1.75;;;1.38;;
37231;SDS011;23125;48.156;15.954;2023-04-24T05:42:14;1.90;;;1.20;;
37231;SDS011;23125;48.156;15.954;2023-04-24T05:44:40;2.20;;;1.35;;
37231;SDS011;23125;48.156;15.954;2023-04-24T05:47:06;4.68;;;1.13;;
37231;SDS011;23125;48.156;15.954;2023-04-24T05:49:32;1.52;;;0.80;;
37231;SDS011;23125;48.156;15.954;2023-04-24T05:51:57;1.15;;;0.65;;
37231;SDS011;23125;48.156;15.954;2023-04-24T05:54:23;1.10;;;0.73;;
37231;SDS011;23125;48.156;15.954;2023-04-24T05:56:49;1.27;;;0.70;;
37231;SDS011;23125;48.156;15.954;2023-04-24T05:59:16;1.20;;;0.80;;
37231;SDS011;23125;48.156;15.954;2023-04-24T06:01:42;1.13;;;0.60;;
37231;SDS011;23125;48.156;15.954;2023-04-24T06:04:08;1.40;;;0.65;;
37231;SDS011;23125;48.156;15.954;2023-04-24T06:06:34;1.02;;;0.68;;
37231;SDS011;23125;48.156;15.954;2023-04-24T06:09:01;1.02;;;0.70;;
37231;SDS011;23125;48.156;15.954;2023-04-24T06:11:28;0.95;;;0.60;;
37231;SDS011;23125;48.156;15.954;2023-04-24T06:13:54;0.95;;;0.50;;
37231;SDS011;23125;48.156;15.954;2023-04-24T06:16:20;1.02;;;0.70;;
37231;SDS011;23125;48.156;15.954;2023-04-24T06:18:46;0.82;;;0.50;;
37231;SDS011;23125;48.156;15.954;2023-04-24T06:21:12;1.98;;;0.82;;
37231;SDS011;23125;48.156;15.954;2023-04-24T06:23:38;1.77;;;0.77;;
37231;SDS011;23125;48.156;15.954;2023-04-24T06:26:04;2.25;;;0.57;;
37231;SDS011;23125;48.156;15.954;2023-04-24T06:28:30;1.85;;;0.50;;
37231;SDS011;23125;48.156;15.954;2023-04-24T06:30:56;1.45;;;0.60;;
37231;SDS011;23125;48.156;15.954;2023-04-24T06:33:22;0.98;;;0.73;;
37231;SDS011;23125;48.156;15.954;2023-04-24T06:35:47;1.23;;;0.70;;
37231;SDS011;23125;48.156;15.954;2023-04-24T06:38:13;2.63;;;0.98;;
37231;SDS011;23125;48.156;15.954;2023-04-24T06:40:41;1.42;;;0.60;;
37231;SDS011;23125;48.156;15.954;2023-04-24T06:43:07;4.18;;;0.60;;
37231;SDS011;23125;48.156;15.954;2023-04-24T06:45:32;1.88;;;0.70;;
37231;SDS011;23125;48.156;15.954;2023-04-24T06:47:58;1.13;;;0.65;;
37231;SDS011;23125;48.156;15.954;2023-04-24T06:50:24;1.08;;;0.63;;
37231;SDS011;23125;48.156;15.954;2023-04-24T06:52:50;1.13;;;0.60;;
37231;SDS011;23125;48.156;15.954;2023-04-24T06:55:16;3.38;;;0.75;;
37231;SDS011;23125;48.156;15.954;2023-04-24T06:57:42;1.05;;;0.70;;
37231;SDS011;23125;48.156;15.954;2023-04-24T07:00:10;2.05;;;0.70;;
37231;SDS011;23125;48.156;15.954;2023-04-24T07:02:36;4.07;;;0.93;;
37231;SDS011;23125;48.156;15.954;2023-04-24T07:05:03;1.52;;;0.80;;
37231;SDS011;23125;48.156;15.954;2023-04-24T07:07:30;1.88;;;0.82;;
37231;SDS011;23125;48.156;15.954;2023-04-24T07:09:56;1.67;;;1.02;;
37231;SDS011;23125;48.156;15.954;2023-04-24T07:12:22;2.35;;;0.90;;
37231;SDS011;23125;48.156;15.954;2023-04-24T07:14:49;1.80;;;0.90;;
37231;SDS011;23125;48.156;15.954;2023-04-24T07:17:16;1.50;;;0.90;;
37231;SDS011;23125;48.156;15.954;2023-04-24T07:19:42;0.98;;;0.80;;
37231;SDS011;23125;48.156;15.954;2023-04-24T07:22:08;0.93;;;0.80;;
37231;SDS011;23125;48.156;15.954;2023-04-24T07:24:36;1.33;;;0.88;;
37231;SDS011;23125;48.156;15.954;2023-04-24T07:27:02;1.40;;;0.80;;
37231;SDS011;23125;48.156;15.954;2023-04-24T07:29:29;2.08;;;1.00;;
37231;SDS011;23125;48.156;15.954;2023-04-24T07:31:55;0.75;;;0.60;;
37231;SDS011;23125;48.156;15.954;2023-04-24T07:34:21;0.90;;;0.70;;
37231;SDS011;23125;48.156;15.954;2023-04-24T07:36:47;2.55;;;0.80;;
37231;SDS011;23125;48.156;15.954;2023-04-24T07:39:13;1.20;;;0.60;;
37231;SDS011;23125;48.156;15.954;2023-04-24T07:41:39;0.85;;;0.73;;
37231;SDS011;23125;48.156;15.954;2023-04-24T07:44:05;1.60;;;0.95;;
37231;SDS011;23125;48.156;15.954;2023-04-24T07:46:31;1.40;;;0.82;;
37231;SDS011;23125;48.156;15.954;2023-04-24T07:48:58;1.73;;;0.95;;
37231;SDS011;23125;48.156;15.954;2023-04-24T07:51:26;2.17;;;1.00;;
37231;SDS011;23125;48.156;15.954;2023-04-24T07:53:56;0.90;;;0.50;;
37231;SDS011;23125;48.156;15.954;2023-04-24T07:56:22;1.42;;;0.80;;
37231;SDS011;23125;48.156;15.954;2023-04-24T07:58:48;1.25;;;0.90;;
37231;SDS011;23125;48.156;15.954;2023-04-24T08:01:14;0.43;;;0.30;;
37231;SDS011;23125;48.156;15.954;2023-04-24T08:03:39;0.70;;;0.40;;
37231;SDS011;23125;48.156;15.954;2023-04-24T08:06:05;0.40;;;0.30;;
37231;SDS011;23125;48.156;15.954;2023-04-24T08:08:31;0.73;;;0.40;;
37231;SDS011;23125;48.156;15.954;2023-04-24T08:10:57;1.00;;;0.40;;
37231;SDS011;23125;48.156;15.954;2023-04-24T08:13:23;0.88;;;0.40;;
37231;SDS011;23125;48.156;15.954;2023-04-24T08:15:49;1.08;;;0.30;;
37231;SDS011;23125;48.156;15.954;2023-04-24T08:18:15;0.45;;;0.22;;
37231;SDS011;23125;48.156;15.954;2023-04-24T08:20:41;1.15;;;0.35;;
37231;SDS011;23125;48.156;15.954;2023-04-24T08:23:07;1.60;;;0.60;;
37231;SDS011;23125;48.156;15.954;2023-04-24T08:25:33;0.60;;;0.20;;
37231;SDS011;23125;48.156;15.954;2023-04-24T08:28:01;0.45;;;0.20;;
37231;SDS011;23125;48.156;15.954;2023-04-24T08:30:29;2.23;;;0.37;;
37231;SDS011;23125;48.156;15.954;2023-04-24T08:32:55;1.60;;;1.50;;
37231;SDS011;23125;48.156;15.954;2023-04-24T08:35:21;1.45;;;0.98;;
37231;SDS011;23125;48.156;15.954;2023-04-24T08:37:48;2.28;;;0.77;;
37231;SDS011;23125;48.156;15.954;2023-04-24T08:40:16;1.42;;;1.17;;
37231;SDS011;23125;48.156;15.954;2023-04-24T08:42:43;6.40;;;3.70;;
37231;SDS011;23125;48.156;15.954;2023-04-24T08:45:13;1.85;;;1.70;;
37231;SDS011;23125;48.156;15.954;2023-04-24T08:47:39;0.70;;;0.40;;
37231;SDS011;23125;48.156;15.954;2023-04-24T08:50:06;0.40;;;0.20;;
37231;SDS011;23125;48.156;15.954;2023-04-24T08:52:34;1.10;;;0.30;;
37231;SDS011;23125;48.156;15.954;2023-04-24T08:55:01;2.10;;;0.50;;
37231;SDS011;23125;48.156;15.954;2023-04-24T08:57:28;4.30;;;3.90;;
37231;SDS011;23125;48.156;15.954;2023-04-24T08:59:54;4.63;;;3.80;;
37231;SDS011;23125;48.156;15.954;2023-04-24T09:02:23;3.53;;;3.22;;
37231;SDS011;23125;48.156;15.954;2023-04-24T09:04:50;5.70;;;5.20;;
37231;SDS011;23125;48.156;15.954;2023-04-24T09:07:17;5.95;;;3.72;;
37231;SDS011;23125;48.156;15.954;2023-04-24T09:09:45;5.65;;;4.65;;
37231;SDS011;23125;48.156;15.954;2023-04-24T09:12:11;1.85;;;1.27;;
37231;SDS011;23125;48.156;15.954;2023-04-24T09:14:37;1.33;;;1.10;;
37231;SDS011;23125;48.156;15.954;2023-04-24T09:17:07;0.40;;;0.40;;
37231;SDS011;23125;48.156;15.954;2023-04-24T09:19:33;1.10;;;0.60;;
37231;SDS011;23125;48.156;15.954;2023-04-24T09:21:59;0.73;;;0.30;;
37231;SDS011;23125;48.156;15.954;2023-04-24T09:24:31;1.13;;;0.50;;
37231;SDS011;23125;48.156;15.954;2023-04-24T09:26:58;1.35;;;0.70;;
37231;SDS011;23125;48.156;15.954;2023-04-24T09:29:24;0.70;;;0.55;;
37231;SDS011;23125;48.156;15.954;2023-04-24T09:31:50;1.48;;;0.63;;
37231;SDS011;23125;48.156;15.954;2023-04-24T09:34:21;1.58;;;0.77;;
37231;SDS011;23125;48.156;15.954;2023-04-24T09:36:53;1.00;;;0.45;;
37231;SDS011;23125;48.156;15.954;2023-04-24T09:39:20;1.60;;;0.30;;
37231;SDS011;23125;48.156;15.954;2023-04-24T09:41:47;0.93;;;0.40;;
37231;SDS011;23125;48.156;15.954;2023-04-24T09:44:15;1.15;;;0.45;;
37231;SDS011;23125;48.156;15.954;2023-04-24T09:46:51;0.57;;;0.30;;
37231;SDS011;23125;48.156;15.954;2023-04-24T09:49:23;2.00;;;0.52;;
37231;SDS011;23125;48.156;15.954;2023-04-24T09:51:50;0.40;;;0.30;;
37231;SDS011;23125;48.156;15.954;2023-04-24T09:54:18;0.45;;;0.30;;
37231;SDS011;23125;48.156;15.954;2023-04-24T09:56:50;2.35;;;0.30;;
37231;SDS011;23125;48.156;15.954;2023-04-24T09:59:17;0.93;;;0.30;;
37231;SDS011;23125;48.156;15.954;2023-04-24T10:01:44;0.88;;;0.40;;
37231;SDS011;23125;48.156;15.954;2023-04-24T10:04:23;0.60;;;0.30;;
37231;SDS011;23125;48.156;15.954;2023-04-24T10:06:51;0.57;;;0.30;;
37231;SDS011;23125;48.156;15.954;2023-04-24T10:09:20;0.28;;;0.20;;
37231;SDS011;23125;48.156;15.954;2023-04-24T10:11:48;0.60;;;0.20;;
37231;SDS011;23125;48.156;15.954;2023-04-24T10:14:16;1.58;;;0.47;;
37231;SDS011;23125;48.156;15.954;2023-04-24T10:16:44;2.25;;;0.63;;
37231;SDS011;23125;48.156;15.954;2023-04-24T10:19:13;0.60;;;0.30;;
37231;SDS011;23125;48.156;15.954;2023-04-24T10:21:41;0.88;;;0.40;;
37231;SDS011;23125;48.156;15.954;2023-04-24T10:24:12;0.73;;;0.40;;
37231;SDS011;23125;48.156;15.954;2023-04-24T10:26:42;0.57;;;0.30;;
37231;SDS011;23125;48.156;15.954;2023-04-24T10:29:10;0.47;;;0.30;;
37231;SDS011;23125;48.156;15.954;2023-04-24T10:31:40;0.88;;;0.40;;
37231;SDS011;23125;48.156;15.954;2023-04-24T10:34:07;0.75;;;0.30;;
37231;SDS011;23125;48.156;15.954;2023-04-24T10:36:35;1.05;;;0.30;;
37231;SDS011;23125;48.156;15.954;2023-04-24T10:39:07;0.60;;;0.30;;
37231;SDS011;23125;48.156;15.954;2023-04-24T10:41:36;1.17;;;0.50;;
37231;SDS011;23125;48.156;15.954;2023-04-24T10:44:04;1.40;;;0.65;;
37231;SDS011;23125;48.156;15.954;2023-04-24T10:46:37;1.65;;;1.10;;
37231;SDS011;23125;48.156;15.954;2023-04-24T10:49:07;0.43;;;0.40;;
37231;SDS011;23125;48.156;15.954;2023-04-24T10:51:47;1.70;;;1.60;;
37231;SDS011;23125;48.156;15.954;2023-04-24T10:54:28;1.90;;;0.65;;
37231;SDS011;23125;48.156;15.954;2023-04-24T10:59:43;2.08;;;1.45;;
37231;SDS011;23125;48.156;15.954;2023-04-24T11:02:10;2.63;;;1.70;;
37231;SDS011;23125;48.156;15.954;2023-04-24T11:04:36;1.27;;;0.60;;
37231;SDS011;23125;48.156;15.954;2023-04-24T11:07:02;0.98;;;0.60;;
37231;SDS011;23125;48.156;15.954;2023-04-24T11:09:32;1.88;;;0.70;;
37231;SDS011;23125;48.156;15.954;2023-04-24T11:12:04;2.08;;;1.08;;
37231;SDS011;23125;48.156;15.954;2023-04-24T11:15:19;1.88;;;0.77;;
37231;SDS011;23125;48.156;15.954;2023-04-24T11:17:30;1.77;;;1.27;;
37231;SDS011;23125;48.156;15.954;2023-04-24T11:20:08;1.27;;;0.70;;
37231;SDS011;23125;48.156;15.954;2023-04-24T11:22:37;0.70;;;0.47;;
37231;SDS011;23125;48.156;15.954;2023-04-24T11:25:08;0.70;;;0.47;;
37231;SDS011;23125;48.156;15.954;2023-04-24T11:27:43;0.73;;;0.40;;
37231;SDS011;23125;48.156;15.954;2023-04-24T11:30:11;1.00;;;0.50;;
37231;SDS011;23125;48.156;15.954;2023-04-24T11:32:40;0.90;;;0.20;;
37231;SDS011;23125;48.156;15.954;2023-04-24T11:35:14;1.35;;;0.50;;
37231;SDS011;23125;48.156;15.954;2023-04-24T11:37:44;0.90;;;0.60;;
37231;SDS011;23125;48.156;15.954;2023-04-24T11:40:14;0.90;;;0.60;;
37231;SDS011;23125;48.156;15.954;2023-04-24T11:42:42;1.45;;;0.60;;
37231;SDS011;23125;48.156;15.954;2023-04-24T11:45:10;0.93;;;0.67;;
37231;SDS011;23125;48.156;15.954;2023-04-24T11:47:43;1.05;;;0.60;;
37231;SDS011;23125;48.156;15.954;2023-04-24T11:50:11;1.17;;;0.70;;
37231;SDS011;23125;48.156;15.954;2023-04-24T11:52:39;1.10;;;0.40;;
37231;SDS011;23125;48.156;15.954;2023-04-24T11:55:07;0.60;;;0.47;;
37231;SDS011;23125;48.156;15.954;2023-04-24T11:57:58;1.92;;;0.80;;
37231;SDS011;23125;48.156;15.954;2023-04-24T12:00:26;1.20;;;0.40;;
37231;SDS011;23125;48.156;15.954;2023-04-24T12:05:48;1.70;;;0.55;;
37231;SDS011;23125;48.156;15.954;2023-04-24T12:08:29;1.13;;;0.65;;
37231;SDS011;23125;48.156;15.954;2023-04-24T12:10:56;0.88;;;0.40;;
37231;SDS011;23125;48.156;15.954;2023-04-24T12:13:22;1.40;;;0.68;;
37231;SDS011;23125;48.156;15.954;2023-04-24T12:15:51;2.13;;;0.40;;
37231;SDS011;23125;48.156;15.954;2023-04-24T12:18:17;1.00;;;0.22;;
37231;SDS011;23125;48.156;15.954;2023-04-24T12:20:42;1.60;;;0.30;;
37231;SDS011;23125;48.156;15.954;2023-04-24T12:23:09;2.03;;;0.50;;
37231;SDS011;23125;48.156;15.954;2023-04-24T12:25:35;2.15;;;0.73;;
37231;SDS011;23125;48.156;15.954;2023-04-24T12:30:30;1.42;;;0.28;;
37231;SDS011;23125;48.156;15.954;2023-04-24T12:32:58;0.70;;;0.30;;
37231;SDS011;23125;48.156;15.954;2023-04-24T12:35:27;5.60;;;0.70;;
37231;SDS011;23125;48.156;15.954;2023-04-24T12:37:54;1.80;;;0.70;;
37231;SDS011;23125;48.156;15.954;2023-04-24T12:40:21;3.35;;;0.80;;
37231;SDS011;23125;48.156;15.954;2023-04-24T12:42:50;1.00;;;0.40;;
37231;SDS011;23125;48.156;15.954;2023-04-24T12:45:17;0.55;;;0.30;;
37231;SDS011;23125;48.156;15.954;2023-04-24T12:47:45;0.65;;;0.30;;
37231;SDS011;23125;48.156;15.954;2023-04-24T12:50:12;1.88;;;0.55;;
37231;SDS011;23125;48.156;15.954;2023-04-24T12:52:40;1.75;;;0.73;;
37231;SDS011;23125;48.156;15.954;2023-04-24T12:55:07;2.50;;;0.98;;
37231;SDS011;23125;48.156;15.954;2023-04-24T12:57:35;1.88;;;0.57;;
37231;SDS011;23125;48.156;15.954;2023-04-24T13:00:02;1.13;;;0.35;;
37231;SDS011;23125;48.156;15.954;2023-04-24T13:02:30;0.50;;;0.20;;
37231;SDS011;23125;48.156;15.954;2023-04-24T13:04:57;1.63;;;0.25;;
37231;SDS011;23125;48.156;15.954;2023-04-24T13:07:24;4.45;;;1.92;;
37231;SDS011;23125;48.156;15.954;2023-04-24T13:09:51;3.85;;;1.17;;
37231;SDS011;23125;48.156;15.954;2023-04-24T13:12:18;0.90;;;0.57;;
37231;SDS011;23125;48.156;15.954;2023-04-24T13:14:45;1.13;;;0.38;;
37231;SDS011;23125;48.156;15.954;2023-04-24T13:17:12;0.73;;;0.35;;
37231;SDS011;23125;48.156;15.954;2023-04-24T13:19:40;1.08;;;0.43;;
37231;SDS011;23125;48.156;15.954;2023-04-24T13:22:08;3.92;;;0.50;;
37231;SDS011;23125;48.156;15.954;2023-04-24T13:24:35;1.00;;;0.50;;
37231;SDS011;23125;48.156;15.954;2023-04-24T13:27:02;0.82;;;0.50;;
37231;SDS011;23125;48.156;15.954;2023-04-24T13:29:29;1.27;;;0.63;;
37231;SDS011;23125;48.156;15.954;2023-04-24T13:31:55;0.57;;;0.10;;
37231;SDS011;23125;48.156;15.954;2023-04-24T13:34:22;0.30;;;0.10;;
37231;SDS011;23125;48.156;15.954;2023-04-24T13:36:49;0.38;;;0.25;;
37231;SDS011;23125;48.156;15.954;2023-04-24T13:39:16;0.60;;;0.28;;
37231;SDS011;23125;48.156;15.954;2023-04-24T13:41:42;0.10;;;0.10;;
37231;SDS011;23125;48.156;15.954;2023-04-24T13:44:08;0.80;;;0.10;;
37231;SDS011;23125;48.156;15.954;2023-04-24T13:46:34;0.75;;;0.20;;
37231;SDS011;23125;48.156;15.954;2023-04-24T13:49:01;1.20;;;0.25;;
37231;SDS011;23125;48.156;15.954;2023-04-24T13:51:29;0.38;;;0.15;;
37231;SDS011;23125;48.156;15.954;2023-04-24T13:53:55;1.17;;;0.30;;
37231;SDS011;23125;48.156;15.954;2023-04-24T13:56:22;0.10;;;0.10;;
37231;SDS011;23125;48.156;15.954;2023-04-24T13:58:48;0.75;;;0.20;;
37231;SDS011;23125;48.156;15.954;2023-04-24T14:01:14;0.63;;;0.22;;
37231;SDS011;23125;48.156;15.954;2023-04-24T14:03:41;1.00;;;0.20;;
37231;SDS011;23125;48.156;15.954;2023-04-24T14:06:08;0.63;;;0.28;;
37231;SDS011;23125;48.156;15.954;2023-04-24T14:08:34;0.63;;;0.20;;
37231;SDS011;23125;48.156;15.954;2023-04-24T14:11:00;0.60;;;0.20;;
37231;SDS011;23125;48.156;15.954;2023-04-24T14:13:26;0.95;;;0.22;;
37231;SDS011;23125;48.156;15.954;2023-04-24T14:15:53;0.77;;;0.30;;
37231;SDS011;23125;48.156;15.954;2023-04-24T14:18:19;0.38;;;0.20;;
37231;SDS011;23125;48.156;15.954;2023-04-24T14:20:45;1.05;;;0.35;;
37231;SDS011;23125;48.156;15.954;2023-04-24T14:23:11;1.92;;;0.60;;
37231;SDS011;23125;48.156;15.954;2023-04-24T14:25:37;0.80;;;0.30;;
37231;SDS011;23125;48.156;15.954;2023-04-24T14:28:03;1.20;;;0.50;;
37231;SDS011;23125;48.156;15.954;2023-04-24T14:30:29;2.28;;;1.35;;
37231;SDS011;23125;48.156;15.954;2023-04-24T14:32:55;0.52;;;0.30;;
37231;SDS011;23125;48.156;15.954;2023-04-24T14:35:21;2.17;;;0.77;;
37231;SDS011;23125;48.156;15.954;2023-04-24T14:37:47;1.63;;;0.50;;
37231;SDS011;23125;48.156;15.954;2023-04-24T14:40:14;1.85;;;0.60;;
37231;SDS011;23125;48.156;15.954;2023-04-24T14:42:40;2.08;;;0.40;;